Laon (02) - Orange-Violet Court

Date : 09/09/2018

Place Nom Licence Catégorie Club Temps CN à J-60 Points Différence Nouveau CN
1 GIRACCA Alice 35862 D21 6008HF 0:42:37 0 3608 2807
2 DRUZETIC Cecilia 13351 D40 7512IF 0:43:05 3826 3569 -257 3878
3 LOTERIE Murielle 7044 D50 5907HF 0:43:55 3659 3501 -158 3659
4 SOL Michel 933 H70 7707IF 0:44:08 4430 3484 -946 4430
5 LEROY Odile 7216 D55 5907HF 0:45:41 2818 3366 +548 3258
6 SCHNEIDER Greg 33666 H14 5116GE 0:49:04 2013 3134 +1121 2157
7 HAGARD Virginie 7048 D35 5907HF 0:49:30 4080 3106 -974 4080
8 ANDRE Rémy 19352 H60 5116GE 0:50:06 0 3069 2296
9 CORDEIRO MENDES Myriam 9235 D55 6008HF 0:53:03 3853 2898 -955 3843
10 SCHNEIDER Elsa 33690 D14 5116GE 0:53:43 1828 2862 +1034 1871
11 PRUVOST Virginie 25881 D45 6208HF 0:54:50 3065 2804 -261 3032
12 DEVIENNE Virginie 30570 D40 5906HF 0:55:32 2164 2769 +605 2245
13 PERETTI Serge 29320 H50 6203HF 0:56:15 2666 2733 +67 2774
14 LECOYER Regis 2884 H65 0207HF 0:57:18 3080 2683 -397 3109
15 BAUD Sandrine 27612 D40 6203HF 0:59:21 2743 2591 -152 2750
16 SCHNEIDER Julie 33691 D16 5116GE 1:07:52 2198 2266 +68 2251
17 DETOC Brigitte 18196 D60 5116GE 1:09:01 1879 2228 +349 2062
18 ANDRE Anne 19353 D55 5116GE 1:09:53 0 2200 1294
19 GAILLARD Gilles 36601 H65 6008HF 1:15:48 1881 2028 +147 2033
20 GUYOT Sophie 35987 D40 5116GE 1:18:06 0 1969 1353
21 LUDEWIG-JAMES Carol 15894 D80 5907HF 1:49:49 1636 1400 -236 1636
nc FRANCOISE Charlotte 32331 D21 5906HF 0:38:11